createdAt,value
2018-05-03T00:01:43.336Z,7.27
2018-05-03T00:04:10.974Z,7.40
2018-05-03T00:06:38.632Z,7.77
2018-05-03T00:09:06.385Z,7.43
2018-05-03T00:11:34.162Z,10.00
2018-05-03T00:14:01.828Z,8.03
2018-05-03T00:16:29.483Z,8.30
2018-05-03T00:18:57.132Z,7.03
2018-05-03T00:21:25.202Z,8.63
2018-05-03T00:23:53.244Z,7.37
2018-05-03T00:26:20.914Z,9.27
2018-05-03T00:28:48.594Z,7.37
2018-05-03T00:31:16.640Z,7.20
2018-05-03T00:33:44.302Z,7.90
2018-05-03T00:36:11.988Z,8.03
2018-05-03T00:38:39.645Z,7.70
2018-05-03T00:41:07.732Z,8.50
2018-05-03T00:43:35.383Z,7.77
2018-05-03T00:46:03.431Z,8.57
2018-05-03T00:48:31.129Z,8.13
2018-05-03T00:50:58.881Z,9.17
2018-05-03T00:53:26.918Z,8.33
2018-05-03T00:55:54.589Z,8.43
2018-05-03T00:58:22.261Z,7.67
2018-05-03T01:00:49.944Z,8.70
2018-05-03T01:03:17.993Z,8.87
2018-05-03T01:05:45.686Z,9.10
2018-05-03T01:08:13.326Z,7.90
2018-05-03T01:10:41.421Z,8.40
2018-05-03T01:13:09.074Z,8.57
2018-05-03T01:15:37.271Z,8.83
2018-05-03T01:18:05.014Z,8.07
2018-05-03T01:20:32.681Z,7.43
2018-05-03T01:23:00.444Z,8.67
2018-05-03T01:25:28.174Z,8.30
2018-05-03T01:27:55.861Z,8.93
2018-05-03T01:30:23.904Z,7.67
2018-05-03T01:32:51.602Z,8.20
2018-05-03T01:35:31.691Z,7.80
2018-05-03T01:38:01.058Z,10.17
2018-05-03T01:40:28.722Z,8.33
2018-05-03T01:42:56.386Z,7.50
2018-05-03T01:45:24.047Z,8.97
2018-05-03T01:47:51.693Z,7.40
2018-05-03T01:50:19.772Z,8.20
2018-05-03T01:52:47.829Z,7.97
2018-05-03T01:55:15.501Z,8.00
2018-05-03T01:57:43.549Z,7.07
2018-05-03T02:00:11.210Z,7.67
2018-05-03T02:02:38.871Z,7.27
2018-05-03T02:05:06.568Z,6.07
2018-05-03T02:07:34.235Z,7.30
2018-05-03T02:10:01.990Z,6.73
2018-05-03T02:12:30.069Z,8.00
2018-05-03T02:14:57.722Z,7.60
2018-05-03T02:17:25.801Z,7.97
2018-05-03T02:19:53.840Z,7.20
2018-05-03T02:22:21.489Z,7.03
2018-05-03T02:24:49.186Z,7.40
2018-05-03T02:27:17.222Z,7.50
2018-05-03T02:29:44.927Z,7.37
2018-05-03T02:32:12.599Z,8.80
2018-05-03T02:34:40.255Z,8.10
2018-05-03T02:37:08.407Z,7.70
2018-05-03T02:39:36.082Z,7.17
2018-05-03T02:42:04.156Z,7.40
2018-05-03T02:44:32.207Z,8.60
2018-05-03T02:46:59.912Z,7.37
2018-05-03T02:49:27.601Z,7.40
2018-05-03T02:51:55.328Z,8.50
2018-05-03T02:54:22.987Z,8.07
2018-05-03T02:56:50.756Z,7.20
2018-05-03T02:59:30.317Z,8.20
2018-05-03T03:02:03.731Z,8.13
2018-05-03T03:08:25.899Z,7.60
2018-05-03T03:14:39.384Z,7.90
2018-05-03T03:17:31.303Z,8.30
2018-05-03T03:24:15.774Z,8.73
2018-05-03T03:30:29.975Z,7.60
2018-05-03T03:33:16.696Z,8.00
2018-05-03T03:36:11.958Z,8.03
2018-05-03T03:38:57.973Z,8.40
2018-05-03T03:41:38.019Z,8.67
2018-05-03T03:44:24.265Z,9.50
2018-05-03T03:46:52.663Z,8.43
2018-05-03T03:49:21.040Z,8.77
2018-05-03T03:51:49.458Z,9.10
2018-05-03T03:54:17.920Z,8.60
2018-05-03T03:56:46.288Z,9.13
2018-05-03T03:59:14.675Z,8.93
2018-05-03T04:01:43.055Z,9.80
2018-05-03T04:04:11.428Z,10.50
2018-05-03T04:06:39.829Z,9.03
2018-05-03T04:09:08.296Z,9.73
2018-05-03T04:11:36.679Z,10.20
2018-05-03T04:14:05.048Z,8.70
2018-05-03T04:16:33.427Z,12.07
2018-05-03T04:19:19.731Z,15.93
2018-05-03T04:22:05.941Z,12.57
2018-05-03T04:24:52.229Z,12.37
2018-05-03T04:27:20.621Z,10.10
2018-05-03T04:29:48.979Z,10.73
2018-05-03T04:32:17.358Z,9.57
2018-05-03T04:34:45.773Z,10.20
2018-05-03T04:37:14.634Z,9.40
2018-05-03T04:39:43.026Z,8.97
2018-05-03T04:42:11.423Z,8.70
2018-05-03T04:44:40.851Z,10.00
2018-05-03T04:47:09.199Z,9.30
2018-05-03T04:49:37.585Z,8.67
2018-05-03T04:52:06.103Z,8.57
2018-05-03T04:54:34.513Z,8.47
2018-05-03T04:57:02.907Z,8.40
2018-05-03T04:59:31.271Z,9.13
2018-05-03T05:01:59.625Z,8.23
2018-05-03T05:04:28.427Z,7.83
2018-05-03T05:06:56.786Z,8.30
2018-05-03T05:09:25.165Z,8.03
2018-05-03T05:11:53.577Z,8.33
2018-05-03T05:14:21.968Z,8.20
2018-05-03T05:16:50.467Z,8.37
2018-05-03T05:19:18.847Z,8.10
2018-05-03T05:21:47.231Z,9.17
2018-05-03T05:24:16.043Z,7.67
2018-05-03T05:26:44.376Z,8.83
2018-05-03T05:29:12.919Z,7.73
2018-05-03T05:31:41.288Z,7.80
2018-05-03T05:34:09.678Z,7.67
2018-05-03T05:36:38.070Z,7.67
2018-05-03T05:39:06.436Z,6.90
2018-05-03T05:41:34.922Z,7.33
2018-05-03T05:44:03.285Z,6.90
2018-05-03T05:46:31.658Z,7.07
2018-05-03T05:49:00.043Z,7.03
2018-05-03T05:51:28.407Z,6.73
2018-05-03T05:53:57.159Z,6.77
2018-05-03T05:56:25.546Z,6.47
2018-05-03T05:58:54.017Z,6.53
2018-05-03T06:01:22.399Z,5.70
2018-05-03T06:03:50.776Z,5.93
2018-05-03T06:06:19.157Z,5.20
2018-05-03T06:08:47.615Z,6.00
2018-05-03T06:11:16.110Z,6.53
2018-05-03T06:13:44.598Z,7.20
2018-05-03T06:16:12.966Z,6.77
2018-05-03T06:18:41.502Z,6.23
2018-05-03T06:21:09.851Z,6.90
2018-05-03T06:23:38.217Z,6.80
2018-05-03T06:26:06.642Z,6.40
2018-05-03T06:28:35.004Z,6.43
2018-05-03T06:31:03.848Z,6.30
2018-05-03T06:33:32.271Z,6.37
2018-05-03T06:36:01.316Z,6.20
2018-05-03T06:38:29.676Z,7.70
2018-05-03T06:40:58.085Z,7.57
2018-05-03T06:43:26.464Z,5.60
2018-05-03T06:45:54.856Z,6.00
2018-05-03T06:48:23.270Z,6.00
2018-05-03T06:50:52.032Z,5.53
2018-05-03T06:53:20.395Z,5.13
2018-05-03T06:55:48.774Z,5.57
2018-05-03T06:58:17.161Z,6.20
2018-05-03T07:00:45.522Z,5.40
2018-05-03T07:03:14.010Z,5.80
2018-05-03T07:05:42.458Z,6.47
2018-05-03T07:08:10.807Z,6.23
2018-05-03T07:10:39.595Z,6.00
2018-05-03T07:13:08.448Z,7.60
2018-05-03T07:15:36.808Z,5.90
2018-05-03T07:18:05.190Z,5.80
2018-05-03T07:20:33.574Z,6.67
2018-05-03T07:23:01.937Z,7.30
2018-05-03T07:25:30.344Z,6.33
2018-05-03T07:27:58.733Z,7.10
2018-05-03T07:30:27.081Z,7.03
2018-05-03T07:32:55.452Z,7.20
2018-05-03T07:35:23.834Z,6.47
2018-05-03T07:37:52.240Z,6.60
2018-05-03T07:40:20.622Z,7.13
2018-05-03T07:42:48.980Z,6.80
2018-05-03T07:45:17.340Z,7.27
2018-05-03T07:47:45.846Z,7.80
2018-05-03T07:50:14.262Z,7.00
2018-05-03T07:52:42.606Z,6.80
2018-05-03T07:55:10.986Z,7.30
2018-05-03T07:57:39.578Z,6.37
2018-05-03T08:00:07.943Z,7.00
2018-05-03T08:02:36.438Z,6.77
2018-05-03T08:05:04.808Z,6.60
2018-05-03T08:07:33.161Z,6.40
2018-05-03T08:10:01.560Z,6.30
2018-05-03T08:12:29.939Z,6.70
2018-05-03T08:14:58.286Z,6.50
2018-05-03T08:17:26.707Z,5.90
2018-05-03T08:19:55.063Z,6.43
2018-05-03T08:22:23.483Z,5.57
2018-05-03T08:24:51.896Z,6.90
2018-05-03T08:27:20.266Z,5.97
2018-05-03T08:29:49.012Z,5.20
2018-05-03T08:32:17.393Z,5.30
2018-05-03T08:34:45.768Z,7.20
2018-05-03T08:37:14.648Z,4.30
2018-05-03T08:39:43.075Z,4.17
2018-05-03T08:42:11.834Z,3.30
2018-05-03T08:44:40.198Z,4.00
2018-05-03T08:47:08.571Z,3.37
2018-05-03T08:49:37.904Z,3.70
2018-05-03T08:52:06.264Z,3.43
2018-05-03T08:54:34.747Z,3.07
2018-05-03T08:57:03.101Z,3.40
2018-05-03T08:59:31.471Z,3.00
2018-05-03T09:01:59.887Z,3.00
2018-05-03T09:04:28.271Z,2.43
2018-05-03T09:06:56.625Z,2.97
2018-05-03T09:09:25.008Z,3.40
2018-05-03T09:11:53.385Z,2.50
2018-05-03T09:14:21.780Z,2.67
2018-05-03T09:16:50.263Z,2.77
2018-05-03T09:19:18.607Z,3.43
2018-05-03T09:21:46.969Z,3.07
2018-05-03T09:24:15.342Z,2.80
2018-05-03T09:26:44.179Z,2.50
2018-05-03T09:29:12.579Z,2.90
2018-05-03T09:31:40.950Z,3.33
2018-05-03T09:34:09.323Z,2.83
2018-05-03T09:36:37.694Z,3.23
2018-05-03T09:39:06.233Z,2.93
2018-05-03T09:41:34.541Z,3.03
2018-05-03T09:44:02.942Z,3.30
2018-05-03T09:46:31.355Z,2.70
2018-05-03T09:49:00.203Z,2.63
2018-05-03T09:51:28.580Z,2.53
2018-05-03T09:53:56.966Z,2.37
2018-05-03T09:56:25.362Z,3.00
2018-05-03T09:58:53.835Z,2.77
2018-05-03T10:01:22.216Z,3.30
2018-05-03T10:03:50.584Z,2.80
2018-05-03T10:06:19.049Z,2.90
2018-05-03T10:08:47.413Z,2.60
2018-05-03T10:11:15.778Z,3.00
2018-05-03T10:13:44.154Z,2.67
2018-05-03T10:16:12.548Z,3.00
2018-05-03T10:18:40.967Z,3.13
2018-05-03T10:21:09.434Z,2.77
2018-05-03T10:23:37.922Z,2.30
2018-05-03T10:26:06.311Z,2.87
2018-05-03T10:28:34.675Z,3.00
2018-05-03T10:31:03.067Z,3.77
2018-05-03T10:33:31.433Z,3.10
2018-05-03T10:35:59.895Z,3.70
2018-05-03T10:38:28.187Z,3.40
2018-05-03T10:40:56.596Z,3.50
2018-05-03T10:43:24.941Z,5.63
2018-05-03T10:45:53.343Z,3.90
2018-05-03T10:48:21.711Z,3.63
2018-05-03T10:50:50.086Z,4.10
2018-05-03T10:53:18.465Z,3.30
2018-05-03T10:55:46.838Z,3.70
2018-05-03T10:58:15.206Z,4.40
2018-05-03T11:00:43.591Z,4.60
2018-05-03T11:03:11.954Z,4.50
2018-05-03T11:05:40.315Z,4.50
2018-05-03T11:08:08.695Z,4.63
2018-05-03T11:10:37.058Z,4.50
2018-05-03T11:13:05.817Z,5.40
2018-05-03T11:15:34.206Z,5.13
2018-05-03T11:18:02.650Z,6.40
2018-05-03T11:20:31.075Z,6.80
2018-05-03T11:22:59.860Z,6.57
2018-05-03T11:25:28.221Z,6.47
2018-05-03T11:27:56.575Z,7.43
2018-05-03T11:30:24.949Z,7.47
2018-05-03T11:32:53.358Z,7.23
2018-05-03T11:35:21.724Z,7.67
2018-05-03T11:37:50.246Z,7.40
2018-05-03T11:40:18.993Z,6.70
2018-05-03T11:42:47.435Z,7.67
2018-05-03T11:45:15.741Z,7.77
2018-05-03T11:47:44.115Z,7.80
2018-05-03T11:50:12.511Z,8.50
2018-05-03T11:52:40.997Z,7.50
2018-05-03T11:55:09.370Z,7.73
2018-05-03T11:57:37.727Z,7.67
2018-05-03T12:00:06.119Z,7.70
2018-05-03T12:02:34.486Z,8.00
2018-05-03T12:05:02.852Z,7.20
2018-05-03T12:07:31.242Z,7.33
2018-05-03T12:09:59.641Z,6.53
2018-05-03T12:12:28.018Z,6.90
2018-05-03T12:14:56.512Z,5.97
2018-05-03T12:17:24.899Z,6.23
2018-05-03T12:19:53.381Z,8.70
2018-05-03T12:22:21.772Z,5.47
2018-05-03T12:24:50.120Z,6.10
2018-05-03T12:27:18.504Z,5.10
2018-05-03T12:29:46.889Z,5.90
2018-05-03T12:32:15.275Z,7.03
2018-05-03T12:34:43.751Z,5.30
2018-05-03T12:37:12.226Z,6.13
2018-05-03T12:39:40.598Z,5.60
2018-05-03T12:42:08.955Z,5.27
2018-05-03T12:44:37.348Z,6.10
2018-05-03T12:47:05.715Z,4.47
2018-05-03T12:49:34.098Z,4.90
2018-05-03T12:52:02.470Z,4.60
2018-05-03T12:54:30.990Z,5.77
2018-05-03T12:56:59.358Z,5.40
2018-05-03T12:59:27.740Z,4.37
2018-05-03T13:01:56.104Z,5.63
2018-05-03T13:04:24.462Z,6.20
2018-05-03T13:06:52.857Z,5.90
2018-05-03T13:09:21.247Z,4.87
2018-05-03T13:11:49.595Z,4.83
2018-05-03T13:14:18.001Z,5.50
2018-05-03T13:16:46.370Z,4.83
2018-05-03T13:19:14.760Z,4.47
2018-05-03T13:21:43.142Z,3.87
2018-05-03T13:24:11.494Z,5.00
2018-05-03T13:26:39.876Z,4.70
2018-05-03T13:29:08.597Z,4.70
2018-05-03T13:31:36.999Z,4.10
2018-05-03T13:34:05.759Z,4.40
2018-05-03T13:36:34.126Z,5.10
2018-05-03T13:39:02.506Z,6.00
2018-05-03T13:41:30.882Z,4.80
2018-05-03T13:43:59.378Z,8.40
2018-05-03T13:46:27.728Z,4.07
2018-05-03T13:48:56.083Z,4.67
2018-05-03T13:51:24.462Z,4.50
2018-05-03T13:53:52.838Z,4.70
2018-05-03T13:56:21.218Z,4.70
2018-05-03T13:58:49.592Z,4.73
2018-05-03T14:01:18.160Z,4.30
2018-05-03T14:03:46.918Z,4.33
2018-05-03T14:06:15.473Z,4.70
2018-05-03T14:08:43.845Z,4.23
2018-05-03T14:11:12.507Z,5.10
2018-05-03T14:13:41.286Z,4.43
2018-05-03T14:16:10.051Z,3.10
2018-05-03T14:18:38.542Z,2.93
2018-05-03T14:21:06.917Z,3.90
2018-05-03T14:23:35.270Z,3.60
2018-05-03T14:26:03.659Z,4.80
2018-05-03T14:28:32.041Z,6.50
2018-05-03T14:31:00.421Z,3.83
2018-05-03T14:33:28.846Z,3.53
2018-05-03T14:35:57.269Z,3.20
2018-05-03T14:38:25.630Z,2.73
2018-05-03T14:40:54.000Z,5.67
2018-05-03T14:43:22.365Z,3.40
2018-05-03T14:45:50.759Z,3.30
2018-05-03T14:48:19.162Z,3.67
2018-05-03T14:50:47.687Z,3.20
2018-05-03T14:53:16.034Z,3.73
2018-05-03T14:55:45.344Z,3.27
2018-05-03T14:58:13.762Z,3.40
2018-05-03T15:00:42.203Z,3.17
2018-05-03T15:03:10.583Z,3.50
2018-05-03T15:05:39.080Z,3.17
2018-05-03T15:08:07.831Z,4.00
2018-05-03T15:10:36.267Z,3.10
2018-05-03T15:13:04.636Z,3.37
2018-05-03T15:15:33.408Z,4.50
2018-05-03T15:18:01.788Z,3.90
2018-05-03T15:20:30.166Z,4.30
2018-05-03T15:22:58.529Z,4.87
2018-05-03T15:25:26.882Z,5.20
2018-05-03T15:27:55.283Z,5.20
2018-05-03T15:30:23.641Z,5.73
2018-05-03T15:32:52.072Z,5.07
2018-05-03T15:35:20.851Z,5.83
2018-05-03T15:37:49.228Z,4.70
2018-05-03T15:40:17.863Z,5.30
2018-05-03T15:42:46.276Z,5.30
2018-05-03T15:45:14.751Z,5.60
2018-05-03T15:47:43.177Z,4.40
2018-05-03T15:50:12.011Z,5.67
2018-05-03T15:52:40.358Z,5.37
2018-05-03T15:55:08.739Z,4.70
2018-05-03T15:57:37.129Z,4.90
2018-05-03T16:00:05.500Z,4.80
2018-05-03T16:02:33.947Z,4.50
2018-05-03T16:05:02.737Z,4.00
2018-05-03T16:07:31.522Z,3.67
2018-05-03T16:09:59.878Z,5.33
2018-05-03T16:12:28.260Z,4.87
2018-05-03T16:14:56.618Z,3.30
2018-05-03T16:17:24.999Z,3.70
2018-05-03T16:19:53.378Z,3.27
2018-05-03T16:22:21.742Z,2.50
2018-05-03T16:24:50.109Z,3.00
2018-05-03T16:27:18.515Z,2.63
2018-05-03T16:29:46.886Z,2.93
2018-05-03T16:32:15.271Z,2.50
2018-05-03T16:34:43.654Z,2.30
2018-05-03T16:37:12.032Z,2.37
2018-05-03T16:39:40.414Z,2.63
2018-05-03T16:42:08.795Z,2.20
2018-05-03T16:44:37.174Z,3.83
2018-05-03T16:47:05.533Z,2.73
2018-05-03T16:49:33.932Z,2.30
2018-05-03T16:52:02.298Z,2.60
2018-05-03T16:54:30.690Z,2.40
2018-05-03T16:56:59.081Z,2.03
2018-05-03T16:59:27.571Z,2.30
2018-05-03T17:01:55.865Z,2.20
2018-05-03T17:04:24.700Z,2.20
2018-05-03T17:06:53.295Z,2.10
2018-05-03T17:09:21.657Z,1.90
2018-05-03T17:11:50.142Z,3.00
2018-05-03T17:14:18.574Z,2.07
2018-05-03T17:16:47.367Z,1.83
2018-05-03T17:19:16.168Z,1.93
2018-05-03T17:21:44.549Z,2.17
2018-05-03T17:24:12.926Z,2.60
2018-05-03T17:26:41.758Z,1.83
2018-05-03T17:29:10.207Z,2.40
2018-05-03T17:31:38.576Z,2.00
2018-05-03T17:34:07.399Z,2.33
2018-05-03T17:36:36.242Z,1.60
2018-05-03T17:39:05.054Z,2.20
2018-05-03T17:41:33.505Z,1.83
2018-05-03T17:44:02.354Z,1.87
2018-05-03T17:46:30.737Z,1.80
2018-05-03T17:48:59.150Z,2.20
2018-05-03T17:51:28.012Z,2.63
2018-05-03T17:53:56.382Z,2.20
2018-05-03T17:56:24.981Z,1.60
2018-05-03T17:58:53.346Z,1.97
2018-05-03T18:01:21.763Z,1.93
2018-05-03T18:03:50.220Z,2.10
2018-05-03T18:06:19.080Z,2.03
2018-05-03T18:08:47.562Z,1.83
2018-05-03T18:11:16.000Z,2.10
2018-05-03T18:13:44.756Z,1.90
2018-05-03T18:16:13.190Z,1.60
2018-05-03T18:18:41.591Z,2.23
2018-05-03T18:21:10.074Z,2.00
2018-05-03T18:23:38.489Z,1.63
2018-05-03T18:26:07.034Z,2.00
2018-05-03T18:28:35.550Z,1.60
2018-05-03T18:31:03.919Z,1.73
2018-05-03T18:33:32.533Z,1.80
2018-05-03T18:36:01.427Z,1.77
2018-05-03T18:38:30.369Z,1.97
2018-05-03T18:40:59.342Z,2.30
2018-05-03T18:43:27.744Z,1.97
2018-05-03T18:45:56.252Z,1.90
2018-05-03T18:48:24.699Z,2.23
2018-05-03T18:50:53.810Z,2.80
2018-05-03T18:53:22.207Z,1.70
2018-05-03T18:55:50.605Z,1.87
2018-05-03T18:58:19.542Z,1.70
2018-05-03T19:00:48.282Z,1.77
2018-05-03T19:03:17.071Z,2.07
2018-05-03T19:05:45.842Z,1.77
2018-05-03T19:08:14.222Z,2.10
2018-05-03T19:10:42.735Z,2.40
2018-05-03T19:13:11.642Z,2.10
2018-05-03T19:15:40.383Z,2.00
2018-05-03T19:18:08.771Z,2.27
2018-05-03T19:20:37.232Z,2.70
2018-05-03T19:23:05.942Z,2.73
2018-05-03T19:25:34.332Z,2.33
2018-05-03T19:28:03.336Z,2.33
2018-05-03T19:30:32.642Z,2.53
2018-05-03T19:33:02.534Z,2.30
2018-05-03T19:35:31.994Z,2.60
2018-05-03T19:38:00.872Z,2.30
2018-05-03T19:40:29.656Z,2.23
2018-05-03T19:42:58.120Z,2.70
2018-05-03T19:45:26.549Z,2.70
2018-05-03T19:47:55.030Z,2.43
2018-05-03T19:50:23.448Z,2.50
2018-05-03T19:52:51.848Z,2.13
2018-05-03T19:55:20.356Z,15.13
2018-05-03T19:57:49.191Z,7.87
2018-05-03T20:00:17.789Z,2.70
2018-05-03T20:02:46.324Z,3.00
2018-05-03T20:05:14.686Z,3.70
2018-05-03T20:07:43.078Z,2.87
2018-05-03T20:10:11.488Z,3.43
2018-05-03T20:12:39.946Z,3.30
2018-05-03T20:15:08.388Z,4.37
2018-05-03T20:17:36.807Z,3.13
2018-05-03T20:20:05.311Z,3.83
2018-05-03T20:22:33.774Z,4.47
2018-05-03T20:25:02.165Z,3.30
2018-05-03T20:27:30.557Z,3.27
2018-05-03T20:29:59.322Z,3.97
2018-05-03T20:32:27.702Z,2.87
2018-05-03T20:34:56.079Z,4.30
2018-05-03T20:37:24.454Z,3.97
2018-05-03T20:39:52.829Z,2.83
2018-05-03T20:42:21.201Z,3.50
2018-05-03T20:44:49.559Z,2.90
2018-05-03T20:47:17.957Z,2.80
2018-05-03T20:49:47.304Z,3.37
2018-05-03T20:52:16.061Z,2.67
2018-05-03T20:54:44.435Z,2.77
2018-05-03T20:57:12.804Z,3.00
2018-05-03T20:59:41.183Z,2.43
2018-05-03T21:02:09.595Z,2.80
2018-05-03T21:04:37.967Z,2.40
2018-05-03T21:07:06.358Z,2.30
2018-05-03T21:09:35.159Z,3.20
2018-05-03T21:12:03.938Z,2.90
2018-05-03T21:14:32.739Z,3.00
2018-05-03T21:17:01.555Z,2.83
2018-05-03T21:19:29.922Z,2.47
2018-05-03T21:21:58.299Z,3.13
2018-05-03T21:24:26.699Z,2.63
2018-05-03T21:26:55.100Z,3.33
2018-05-03T21:29:23.470Z,2.83
2018-05-03T21:31:51.878Z,2.17
2018-05-03T21:34:20.254Z,3.00
2018-05-03T21:36:48.612Z,3.30
2018-05-03T21:39:16.989Z,2.43
2018-05-03T21:41:45.367Z,2.57
2018-05-03T21:44:13.733Z,3.03
2018-05-03T21:46:42.138Z,2.73
2018-05-03T21:49:10.524Z,3.33
2018-05-03T21:51:38.881Z,2.93
2018-05-03T21:54:07.257Z,2.37
2018-05-03T21:56:35.628Z,1.87
2018-05-03T21:59:03.986Z,2.10
2018-05-03T22:01:32.397Z,3.20
2018-05-03T22:04:01.034Z,2.10
2018-05-03T22:06:29.322Z,3.13
2018-05-03T22:08:57.745Z,2.57
2018-05-03T22:11:26.102Z,2.43
2018-05-03T22:13:54.555Z,2.90
2018-05-03T22:16:22.882Z,3.97
2018-05-03T22:18:51.258Z,3.03
2018-05-03T22:21:19.652Z,3.67
2018-05-03T22:23:48.036Z,2.67
2018-05-03T22:26:16.390Z,3.73
2018-05-03T22:28:44.785Z,3.13
2018-05-03T22:31:14.178Z,3.50
2018-05-03T22:33:42.554Z,3.17
2018-05-03T22:36:11.126Z,3.03
2018-05-03T22:38:39.511Z,3.50
2018-05-03T22:41:07.875Z,3.13
2018-05-03T22:43:36.271Z,2.77
2018-05-03T22:46:04.646Z,3.50
2018-05-03T22:48:33.003Z,3.70
2018-05-03T22:51:01.373Z,2.57
2018-05-03T22:53:29.796Z,2.80
2018-05-03T22:55:58.153Z,2.60
2018-05-03T22:58:26.608Z,3.30
2018-05-03T23:00:55.096Z,2.80
2018-05-03T23:03:23.472Z,4.00
2018-05-03T23:05:51.880Z,3.13
2018-05-03T23:08:20.258Z,3.70
2018-05-03T23:10:48.630Z,3.00
2018-05-03T23:13:17.002Z,3.30
2018-05-03T23:15:45.387Z,3.00
2018-05-03T23:18:13.750Z,2.83
2018-05-03T23:20:42.167Z,2.73
2018-05-03T23:23:10.738Z,3.07
2018-05-03T23:25:39.088Z,3.00
2018-05-03T23:28:07.457Z,3.20
2018-05-03T23:30:35.882Z,3.40
2018-05-03T23:33:04.238Z,2.53
2018-05-03T23:35:32.585Z,3.10
2018-05-03T23:38:00.981Z,3.63
2018-05-03T23:40:29.584Z,3.17
2018-05-03T23:42:57.946Z,3.30
2018-05-03T23:45:26.316Z,2.53
2018-05-03T23:47:54.709Z,3.10
2018-05-03T23:50:23.076Z,2.97
2018-05-03T23:52:51.510Z,3.80
2018-05-03T23:55:19.931Z,2.97
2018-05-03T23:57:48.376Z,2.90
